Time;durP1;ratioP1;P1;durP2;ratioP2;P2;SDS_P1;SDS_P2;PMS_P1;PMS_P2;Temp;Humidity;BMP_temperature;BMP_pressure;BME280_temperature;BME280_humidity;BME280_pressure;Samples;Min_cycle;Max_cycle;Signal;HPM_P1;HPM_P2
2022/07/07 00:01:37;;;;;;;;;;;17.00;99.90;;;;;;5162331;27;19946;-79
2022/07/07 00:04:03;;;;;;;;;;;16.90;99.90;;;;;;5143638;27;19923;-80
2022/07/07 00:06:29;;;;;;;;;;;16.80;99.90;;;;;;5146667;27;20293;-80
2022/07/07 00:08:55;;;;;;;;;;;16.80;99.90;;;;;;5144558;27;19988;-80
2022/07/07 00:11:21;;;;;;;;;;;16.60;99.90;;;;;;5149771;27;19934;-80
2022/07/07 00:13:47;;;;;;;;;;;16.60;99.90;;;;;;5147622;27;20319;-80
2022/07/07 00:16:13;;;;;;;;;;;16.50;99.90;;;;;;5131176;27;19927;-80
2022/07/07 00:18:39;;;;;;;;;;;16.40;99.90;;;;;;5149722;27;19933;-81
2022/07/07 00:21:04;;;;;;;;;;;16.40;99.90;;;;;;5146503;27;19931;-80
2022/07/07 00:23:30;;;;;;;;;;;16.40;99.90;;;;;;5151317;27;19988;-81
2022/07/07 00:25:55;;;;;;;;;;;16.30;99.90;;;;;;5147303;27;19923;-79
2022/07/07 00:28:21;;;;;;;;;;;16.40;99.90;;;;;;5167930;27;20274;-81
2022/07/07 00:30:47;;;;;;;;;;;16.30;99.90;;;;;;5166531;27;19923;-80
2022/07/07 00:33:12;;;;;;;;;;;16.40;99.90;;;;;;5148925;27;19993;-80
2022/07/07 00:35:38;;;;;;;;;;;16.30;99.90;;;;;;5148742;27;19933;-79
2022/07/07 00:38:03;;;;;;;;;;;16.30;99.90;;;;;;5166916;27;19986;-79
2022/07/07 00:40:29;;;;;;;;;;;16.30;99.90;;;;;;5168385;27;19927;-79
2022/07/07 00:42:54;;;;;;;;;;;16.30;99.90;;;;;;5164845;27;19929;-78
2022/07/07 00:45:20;;;;;;;;;;;16.30;99.90;;;;;;5167006;27;20342;-79
2022/07/07 00:47:46;;;;;;;;;;;16.60;99.90;;;;;;5165280;27;19931;-79
2022/07/07 00:50:11;;;;;;;;;;;16.30;99.90;;;;;;5167593;27;20338;-79
2022/07/07 00:52:37;;;;;;;;;;;16.30;99.90;;;;;;5167211;27;19923;-79
2022/07/07 00:55:03;;;;;;;;;;;16.30;99.90;;;;;;5146735;27;19964;-79
2022/07/07 00:57:28;;;;;;;;;;;16.40;99.90;;;;;;5168526;27;19922;-79
2022/07/07 00:59:55;;;;;;;;;;;16.40;99.90;;;;;;5146258;27;19952;-79
2022/07/07 01:02:20;;;;;;;;;;;16.40;99.90;;;;;;5145526;27;19919;-79
2022/07/07 01:04:46;;;;;;;;;;;16.40;99.90;;;;;;5168682;27;20426;-78
2022/07/07 01:07:12;;;;;;;;;;;16.50;99.90;;;;;;5146621;27;20534;-79
2022/07/07 01:09:38;;;;;;;;;;;16.50;99.90;;;;;;5167085;27;20018;-79
2022/07/07 01:12:04;;;;;;;;;;;16.40;99.90;;;;;;5147697;27;19923;-79
2022/07/07 01:14:29;;;;;;;;;;;16.40;99.90;;;;;;5164993;27;19937;-78
2022/07/07 01:16:55;;;;;;;;;;;16.50;99.90;;;;;;5145961;27;20332;-79
2022/07/07 01:19:22;;;;;;;;;;;16.50;99.90;;;;;;5168474;27;19923;-79
2022/07/07 01:21:51;;;;;;;;;;;16.60;99.90;;;;;;5163605;27;19925;-79
2022/07/07 01:24:17;;;;;;;;;;;16.50;99.90;;;;;;5141957;27;20302;-79
2022/07/07 01:26:43;;;;;;;;;;;16.50;99.90;;;;;;5149790;27;19930;-79
2022/07/07 01:29:09;;;;;;;;;;;16.40;99.90;;;;;;5141427;27;19974;-79
2022/07/07 01:31:35;;;;;;;;;;;16.40;99.90;;;;;;5147776;27;19923;-79
2022/07/07 01:34:00;;;;;;;;;;;16.40;99.90;;;;;;5147270;27;20023;-79
2022/07/07 01:36:26;;;;;;;;;;;16.40;99.90;;;;;;5146857;27;19930;-79
2022/07/07 01:38:51;;;;;;;;;;;16.40;99.90;;;;;;5163890;27;20368;-79
2022/07/07 01:41:16;;;;;;;;;;;16.30;99.90;;;;;;5149142;27;19975;-77
2022/07/07 01:43:42;;;;;;;;;;;16.30;99.90;;;;;;5163889;27;19969;-79
2022/07/07 01:46:07;;;;;;;;;;;16.20;99.90;;;;;;5148265;27;19926;-79
2022/07/07 01:48:33;;;;;;;;;;;16.20;99.90;;;;;;5165303;27;19968;-79
2022/07/07 01:50:58;;;;;;;;;;;16.20;99.90;;;;;;5161461;27;19927;-79
2022/07/07 01:53:24;;;;;;;;;;;16.30;99.90;;;;;;5166498;27;19919;-79
2022/07/07 01:55:49;;;;;;;;;;;16.20;99.90;;;;;;5164332;27;19923;-78
2022/07/07 01:58:15;;;;;;;;;;;16.20;99.90;;;;;;5164987;27;19929;-78
2022/07/07 02:00:40;;;;;;;;;;;16.20;99.90;;;;;;5168015;27;19919;-79
2022/07/07 02:03:06;;;;;;;;;;;16.20;99.90;;;;;;5164002;27;19923;-77
2022/07/07 02:05:31;;;;;;;;;;;16.20;99.90;;;;;;5149111;27;19957;-79
2022/07/07 02:07:57;;;;;;;;;;;16.20;99.90;;;;;;5147135;27;19923;-79
2022/07/07 02:13:06;;;;;;;;;;;16.20;99.90;;;;;;5137642;27;19923;-79
2022/07/07 02:15:32;;;;;;;;;;;16.20;99.90;;;;;;5166808;27;19945;-79
2022/07/07 02:17:58;;;;;;;;;;;16.20;99.90;;;;;;5145457;27;19934;-78
2022/07/07 02:20:24;;;;;;;;;;;16.20;99.90;;;;;;5164958;27;19924;-78
2022/07/07 02:22:49;;;;;;;;;;;16.30;99.90;;;;;;5146450;27;20505;-79
2022/07/07 02:25:15;;;;;;;;;;;16.20;99.90;;;;;;5164133;27;20294;-78
2022/07/07 02:27:40;;;;;;;;;;;16.30;99.90;;;;;;5165678;27;20010;-78
2022/07/07 02:30:07;;;;;;;;;;;16.50;99.90;;;;;;5162985;27;19991;-77
2022/07/07 02:32:32;;;;;;;;;;;16.20;99.90;;;;;;5166545;27;19930;-79
2022/07/07 02:34:58;;;;;;;;;;;16.20;99.90;;;;;;5160984;27;19931;-78
2022/07/07 02:37:24;;;;;;;;;;;16.10;99.90;;;;;;5164399;27;19918;-79
2022/07/07 02:39:51;;;;;;;;;;;16.20;99.90;;;;;;5146047;27;19934;-78
2022/07/07 02:42:16;;;;;;;;;;;16.20;99.90;;;;;;5146287;27;19927;-79
2022/07/07 02:44:42;;;;;;;;;;;16.20;99.90;;;;;;5145357;27;19930;-78
2022/07/07 02:47:07;;;;;;;;;;;16.20;99.90;;;;;;5164914;27;19922;-78
2022/07/07 02:49:33;;;;;;;;;;;16.10;99.90;;;;;;5162582;27;20316;-78
2022/07/07 02:51:59;;;;;;;;;;;16.10;99.90;;;;;;5162594;27;19980;-78
2022/07/07 02:54:24;;;;;;;;;;;16.10;99.90;;;;;;5146381;27;19931;-78
2022/07/07 02:56:50;;;;;;;;;;;16.10;99.90;;;;;;5145042;27;20417;-78
2022/07/07 02:59:15;;;;;;;;;;;16.00;99.90;;;;;;5164766;27;19976;-77
2022/07/07 03:01:41;;;;;;;;;;;16.00;99.90;;;;;;5164700;27;19970;-78
2022/07/07 03:04:06;;;;;;;;;;;16.10;99.90;;;;;;5163336;27;19923;-78
2022/07/07 03:06:32;;;;;;;;;;;16.00;99.90;;;;;;5145174;27;19923;-78
2022/07/07 03:08:57;;;;;;;;;;;16.00;99.90;;;;;;5157185;27;19927;-78
2022/07/07 03:11:23;;;;;;;;;;;15.90;99.90;;;;;;5165756;27;19923;-78
2022/07/07 03:13:48;;;;;;;;;;;16.10;99.90;;;;;;5162307;27;20770;-78
2022/07/07 03:16:14;;;;;;;;;;;15.90;99.90;;;;;;5163496;27;19958;-78
2022/07/07 03:18:39;;;;;;;;;;;15.90;99.90;;;;;;5146129;27;19922;-79
2022/07/07 03:21:05;;;;;;;;;;;15.80;99.90;;;;;;5146088;27;20586;-78
2022/07/07 03:23:30;;;;;;;;;;;15.80;99.90;;;;;;5161524;27;19923;-78
2022/07/07 03:25:56;;;;;;;;;;;15.80;99.90;;;;;;5165718;27;19930;-78
2022/07/07 03:28:21;;;;;;;;;;;15.80;99.90;;;;;;5163095;27;19923;-78
2022/07/07 03:30:47;;;;;;;;;;;15.80;99.90;;;;;;5162947;27;19927;-77
2022/07/07 03:33:12;;;;;;;;;;;15.80;99.90;;;;;;5144029;27;19929;-77
2022/07/07 03:35:39;;;;;;;;;;;15.80;99.90;;;;;;5144999;27;19973;-78
2022/07/07 03:38:05;;;;;;;;;;;15.70;99.90;;;;;;5145396;27;20296;-78
2022/07/07 03:40:30;;;;;;;;;;;15.70;99.90;;;;;;5144308;27;20018;-78
2022/07/07 03:42:56;;;;;;;;;;;15.70;99.90;;;;;;5160513;27;20270;-78
2022/07/07 03:45:22;;;;;;;;;;;15.70;99.90;;;;;;5167290;27;19930;-78
2022/07/07 03:47:50;;;;;;;;;;;15.60;99.90;;;;;;5166767;27;19970;-79
2022/07/07 03:50:15;;;;;;;;;;;15.60;99.90;;;;;;5169681;27;20289;-78
2022/07/07 03:52:41;;;;;;;;;;;15.90;99.90;;;;;;5164235;27;19923;-78
2022/07/07 03:55:07;;;;;;;;;;;15.60;99.90;;;;;;5164875;27;19931;-78
2022/07/07 03:57:32;;;;;;;;;;;15.50;99.90;;;;;;5168075;27;19922;-77
2022/07/07 03:59:58;;;;;;;;;;;15.40;99.90;;;;;;5166416;27;19923;-78
2022/07/07 04:02:24;;;;;;;;;;;15.40;99.90;;;;;;5169461;27;20013;-75
2022/07/07 04:04:49;;;;;;;;;;;15.40;99.90;;;;;;5161024;27;19923;-80
2022/07/07 04:07:15;;;;;;;;;;;15.70;99.90;;;;;;5150624;27;20404;-82
2022/07/07 04:09:40;;;;;;;;;;;15.40;99.90;;;;;;5147977;27;20026;-81
2022/07/07 04:12:06;;;;;;;;;;;15.40;99.90;;;;;;5148581;27;19945;-81
2022/07/07 04:14:31;;;;;;;;;;;15.40;99.90;;;;;;5149480;27;19927;-81
2022/07/07 04:16:57;;;;;;;;;;;15.40;99.90;;;;;;5166805;27;19930;-81
2022/07/07 04:19:22;;;;;;;;;;;15.40;99.90;;;;;;5149665;27;20010;-82
2022/07/07 04:21:48;;;;;;;;;;;15.40;99.90;;;;;;5148221;27;20009;-79
2022/07/07 04:24:13;;;;;;;;;;;15.40;99.90;;;;;;5146887;27;19970;-81
2022/07/07 04:26:39;;;;;;;;;;;15.40;99.90;;;;;;5168082;27;19927;-87
2022/07/07 04:29:04;;;;;;;;;;;15.50;99.90;;;;;;5169026;27;20358;-82
2022/07/07 04:31:30;;;;;;;;;;;15.40;99.90;;;;;;5167795;27;19923;-83
2022/07/07 04:33:55;;;;;;;;;;;15.40;99.90;;;;;;5147373;27;19967;-84
2022/07/07 04:36:21;;;;;;;;;;;15.50;99.90;;;;;;5168216;27;20400;-83
2022/07/07 04:38:46;;;;;;;;;;;15.50;99.90;;;;;;5165545;27;19927;-84
2022/07/07 04:41:12;;;;;;;;;;;15.70;99.90;;;;;;5168445;27;19962;-84
2022/07/07 04:43:37;;;;;;;;;;;15.60;99.90;;;;;;5170397;27;20264;-87
2022/07/07 04:46:03;;;;;;;;;;;15.50;99.90;;;;;;5142597;27;19930;-87
2022/07/07 04:48:28;;;;;;;;;;;15.50;99.90;;;;;;5165057;27;19974;-86
2022/07/07 04:50:54;;;;;;;;;;;15.60;99.90;;;;;;5147583;27;19923;-87
2022/07/07 04:53:20;;;;;;;;;;;15.60;99.90;;;;;;5164433;27;20373;-87
2022/07/07 04:55:45;;;;;;;;;;;16.00;99.90;;;;;;5163818;27;19922;-86
2022/07/07 04:58:10;;;;;;;;;;;15.70;99.90;;;;;;5164381;27;19930;-85
2022/07/07 05:00:36;;;;;;;;;;;15.70;99.90;;;;;;5149159;27;19923;-86
2022/07/07 05:03:02;;;;;;;;;;;15.70;99.90;;;;;;5166677;27;20013;-84
2022/07/07 05:05:27;;;;;;;;;;;15.70;99.90;;;;;;5166364;27;19923;-86
2022/07/07 05:07:53;;;;;;;;;;;16.00;99.90;;;;;;5146871;27;19930;-84
2022/07/07 05:10:18;;;;;;;;;;;16.10;99.90;;;;;;5149345;27;19926;-84
2022/07/07 05:12:44;;;;;;;;;;;15.80;99.90;;;;;;5165854;27;19938;-79
2022/07/07 05:15:09;;;;;;;;;;;15.90;99.90;;;;;;5144649;27;20022;-79
2022/07/07 05:17:36;;;;;;;;;;;15.90;99.90;;;;;;5168160;27;19922;-76
2022/07/07 05:20:03;;;;;;;;;;;16.10;99.90;;;;;;5146461;27;20388;-79
2022/07/07 05:22:28;;;;;;;;;;;15.80;99.90;;;;;;5147884;27;19937;-77
2022/07/07 05:24:54;;;;;;;;;;;15.80;99.90;;;;;;5165946;27;19919;-78
2022/07/07 05:27:19;;;;;;;;;;;15.80;99.90;;;;;;5147556;27;20437;-83
2022/07/07 05:29:45;;;;;;;;;;;16.00;99.90;;;;;;5162200;27;19930;-84
2022/07/07 05:32:10;;;;;;;;;;;15.90;99.90;;;;;;5164438;27;20010;-84
2022/07/07 05:34:35;;;;;;;;;;;16.10;99.90;;;;;;5149635;27;19946;-85
2022/07/07 05:37:01;;;;;;;;;;;16.10;99.90;;;;;;5163902;27;19962;-85
2022/07/07 05:39:28;;;;;;;;;;;16.20;99.90;;;;;;5162877;27;19930;-85
2022/07/07 05:41:54;;;;;;;;;;;16.00;99.90;;;;;;5164944;27;19923;-85
2022/07/07 05:44:19;;;;;;;;;;;16.10;99.90;;;;;;5147550;27;20335;-85
2022/07/07 05:46:44;;;;;;;;;;;16.20;99.90;;;;;;5166884;27;19923;-84
2022/07/07 05:49:10;;;;;;;;;;;16.30;99.90;;;;;;5144660;27;20393;-86
2022/07/07 05:51:36;;;;;;;;;;;16.30;99.90;;;;;;5146604;27;20378;-88
2022/07/07 05:54:01;;;;;;;;;;;16.30;99.90;;;;;;5149490;27;19967;-87
2022/07/07 05:56:27;;;;;;;;;;;16.30;99.90;;;;;;5168030;27;20373;-77
2022/07/07 05:58:52;;;;;;;;;;;16.30;99.90;;;;;;5166623;27;19922;-84
2022/07/07 06:01:18;;;;;;;;;;;16.40;99.90;;;;;;5146717;27;20022;-82
2022/07/07 06:03:43;;;;;;;;;;;16.50;99.90;;;;;;5164939;27;19927;-81
2022/07/07 06:06:08;;;;;;;;;;;16.50;99.90;;;;;;5143952;27;19931;-83
2022/07/07 06:08:34;;;;;;;;;;;16.50;99.90;;;;;;5162680;27;19939;-81
2022/07/07 06:11:00;;;;;;;;;;;16.50;99.90;;;;;;5158792;27;19923;-82
2022/07/07 06:13:25;;;;;;;;;;;16.60;99.90;;;;;;5145158;27;19923;-82
2022/07/07 06:15:50;;;;;;;;;;;16.90;99.90;;;;;;5147538;27;20373;-82
2022/07/07 06:18:16;;;;;;;;;;;16.50;99.90;;;;;;5163887;27;19930;-81
2022/07/07 06:20:42;;;;;;;;;;;16.50;99.90;;;;;;5146684;27;19973;-81
2022/07/07 06:23:08;;;;;;;;;;;16.60;99.90;;;;;;5165054;27;19984;-84
2022/07/07 06:25:34;;;;;;;;;;;16.60;99.90;;;;;;5144713;27;20387;-79
2022/07/07 06:27:59;;;;;;;;;;;16.60;99.90;;;;;;5144480;27;20290;-83
2022/07/07 06:30:25;;;;;;;;;;;16.80;99.90;;;;;;5167059;27;19923;-85
2022/07/07 06:32:51;;;;;;;;;;;16.90;99.90;;;;;;5162715;27;19930;-80
2022/07/07 06:35:19;;;;;;;;;;;16.50;99.90;;;;;;5147352;27;20384;-82
2022/07/07 06:37:45;;;;;;;;;;;16.50;99.90;;;;;;5164692;27;20403;-87
2022/07/07 06:40:10;;;;;;;;;;;16.70;99.90;;;;;;5164082;27;19953;-83
2022/07/07 06:42:36;;;;;;;;;;;16.80;99.90;;;;;;5164973;27;19931;-84
2022/07/07 06:45:02;;;;;;;;;;;17.00;99.90;;;;;;5162601;27;19930;-82
2022/07/07 06:47:27;;;;;;;;;;;17.10;99.90;;;;;;5143734;27;19927;-83
2022/07/07 06:49:53;;;;;;;;;;;17.10;99.90;;;;;;5166509;27;19929;-81
2022/07/07 06:52:19;;;;;;;;;;;17.10;99.90;;;;;;5161104;27;19926;-88
2022/07/07 06:54:45;;;;;;;;;;;17.20;99.90;;;;;;5162523;27;19938;-84
2022/07/07 06:57:10;;;;;;;;;;;17.10;99.90;;;;;;5165215;27;19923;-84
2022/07/07 06:59:36;;;;;;;;;;;17.20;99.90;;;;;;5164956;27;20006;-84
2022/07/07 07:02:02;;;;;;;;;;;17.10;99.90;;;;;;5162468;27;19973;-82
2022/07/07 07:04:27;;;;;;;;;;;17.10;99.90;;;;;;5165922;27;19922;-81
2022/07/07 07:06:53;;;;;;;;;;;17.20;99.90;;;;;;5162529;27;20302;-80
2022/07/07 07:09:18;;;;;;;;;;;17.30;99.90;;;;;;5161532;27;20379;-84
2022/07/07 07:11:44;;;;;;;;;;;17.60;99.90;;;;;;5167510;27;20014;-82
2022/07/07 07:14:09;;;;;;;;;;;17.60;99.90;;;;;;5162516;27;19923;-86
2022/07/07 07:16:35;;;;;;;;;;;17.30;99.90;;;;;;5162988;27;19973;-82
2022/07/07 07:19:00;;;;;;;;;;;17.00;99.90;;;;;;5162632;27;19944;-82
2022/07/07 07:21:26;;;;;;;;;;;16.90;99.90;;;;;;5163367;27;19923;-80
2022/07/07 07:23:52;;;;;;;;;;;16.80;99.90;;;;;;5142295;27;19923;-82
2022/07/07 07:26:17;;;;;;;;;;;16.80;99.90;;;;;;5163884;27;20281;-83
2022/07/07 07:28:43;;;;;;;;;;;16.90;99.90;;;;;;5136310;27;20022;-83
2022/07/07 07:31:08;;;;;;;;;;;17.20;99.90;;;;;;5136975;27;19983;-81
2022/07/07 07:33:35;;;;;;;;;;;17.40;99.90;;;;;;5162992;27;19923;-82
2022/07/07 07:36:02;;;;;;;;;;;17.80;99.90;;;;;;5144989;27;19929;-83
2022/07/07 07:38:27;;;;;;;;;;;18.50;99.90;;;;;;5159285;27;20289;-83
2022/07/07 07:40:53;;;;;;;;;;;19.30;99.90;;;;;;5160310;27;19923;-84
2022/07/07 07:43:18;;;;;;;;;;;19.80;99.90;;;;;;5161898;27;19930;-83
2022/07/07 07:45:44;;;;;;;;;;;19.80;99.90;;;;;;5165787;27;19923;-83
2022/07/07 07:48:10;;;;;;;;;;;19.40;99.90;;;;;;5161830;27;19936;-82
2022/07/07 07:50:35;;;;;;;;;;;19.30;99.90;;;;;;5162025;27;19923;-90
2022/07/07 07:53:04;;;;;;;;;;;19.10;99.90;;;;;;5162173;27;19923;-80
2022/07/07 07:55:30;;;;;;;;;;;19.10;99.90;;;;;;5164587;27;19923;-81
2022/07/07 07:57:56;;;;;;;;;;;19.30;99.90;;;;;;5162781;27;19952;-80
2022/07/07 08:00:22;;;;;;;;;;;19.40;99.90;;;;;;5163380;27;19930;-81
2022/07/07 08:02:48;;;;;;;;;;;19.40;99.90;;;;;;5160299;27;20018;-81
2022/07/07 08:05:14;;;;;;;;;;;18.90;99.90;;;;;;5161353;27;19958;-81
2022/07/07 08:07:40;;;;;;;;;;;18.80;99.90;;;;;;5147424;27;20331;-82
2022/07/07 08:10:06;;;;;;;;;;;18.70;99.90;;;;;;5161933;27;19927;-80
2022/07/07 08:12:32;;;;;;;;;;;19.00;99.90;;;;;;5145407;27;19981;-83
2022/07/07 08:14:57;;;;;;;;;;;19.30;99.90;;;;;;5163026;27;19964;-79
2022/07/07 08:17:23;;;;;;;;;;;19.40;99.90;;;;;;5145038;27;20025;-79
2022/07/07 08:19:49;;;;;;;;;;;19.70;99.90;;;;;;5163463;27;19982;-82
2022/07/07 08:22:14;;;;;;;;;;;19.60;99.90;;;;;;5143715;27;19926;-81
2022/07/07 08:24:40;;;;;;;;;;;19.50;99.90;;;;;;5164302;27;19950;-82
2022/07/07 08:27:05;;;;;;;;;;;19.30;99.90;;;;;;5143468;27;19923;-79
2022/07/07 08:29:31;;;;;;;;;;;19.00;99.90;;;;;;5165173;27;20350;-79
2022/07/07 08:31:56;;;;;;;;;;;19.10;99.90;;;;;;5145303;27;19930;-79
2022/07/07 08:34:23;;;;;;;;;;;19.00;99.90;;;;;;5149462;27;20017;-80
2022/07/07 08:36:48;;;;;;;;;;;19.10;99.90;;;;;;5146002;27;19919;-78
2022/07/07 08:39:14;;;;;;;;;;;19.20;99.90;;;;;;5148548;27;19930;-76
2022/07/07 08:41:40;;;;;;;;;;;19.80;99.90;;;;;;5165434;27;20017;-82
2022/07/07 08:44:05;;;;;;;;;;;20.50;99.90;;;;;;5165299;27;19923;-79
2022/07/07 08:46:31;;;;;;;;;;;20.90;99.90;;;;;;5162556;27;20007;-77
2022/07/07 08:48:57;;;;;;;;;;;20.60;99.90;;;;;;5168160;27;19967;-87
2022/07/07 08:51:22;;;;;;;;;;;20.30;99.90;;;;;;5148370;27;19923;-86
2022/07/07 08:53:48;;;;;;;;;;;20.60;99.90;;;;;;5164284;27;20009;-86
2022/07/07 08:56:14;;;;;;;;;;;20.90;99.90;;;;;;5142098;27;19922;-84
2022/07/07 08:58:40;;;;;;;;;;;20.80;99.90;;;;;;5165824;27;19927;-86
2022/07/07 09:01:06;;;;;;;;;;;20.20;99.90;;;;;;5167562;27;19923;-86
2022/07/07 09:03:32;;;;;;;;;;;20.10;99.90;;;;;;5165102;27;20392;-84
2022/07/07 09:05:58;;;;;;;;;;;19.90;99.90;;;;;;5152592;27;19930;-86
2022/07/07 09:08:25;;;;;;;;;;;20.10;99.90;;;;;;5163401;27;19924;-84
2022/07/07 09:10:51;;;;;;;;;;;19.70;99.90;;;;;;5165396;27;19927;-79
2022/07/07 09:13:25;;;;;;;;;;;20.20;99.90;;;;;;5169177;27;20289;-90
2022/07/07 09:15:51;;;;;;;;;;;20.60;99.90;;;;;;5166924;27;19968;-79
2022/07/07 09:18:32;;;;;;;;;;;20.80;99.90;;;;;;5165868;27;20366;-77
2022/07/07 09:20:58;;;;;;;;;;;20.70;99.90;;;;;;5144903;27;19923;-84
2022/07/07 09:23:23;;;;;;;;;;;20.20;99.90;;;;;;5161214;27;19923;-88
2022/07/07 09:25:49;;;;;;;;;;;19.90;99.90;;;;;;5172993;27;20013;-89
2022/07/07 09:28:14;;;;;;;;;;;19.80;99.90;;;;;;5165717;27;19923;-81
2022/07/07 09:30:45;;;;;;;;;;;19.40;99.90;;;;;;5147645;27;20013;-83
2022/07/07 09:33:23;;;;;;;;;;;19.20;99.90;;;;;;5147558;27;20432;-83
2022/07/07 09:38:34;;;;;;;;;;;19.10;99.90;;;;;;5143859;27;19927;-85
2022/07/07 09:41:00;;;;;;;;;;;19.20;99.90;;;;;;5149099;27;19922;-83
2022/07/07 09:43:30;;;;;;;;;;;19.10;99.90;;;;;;5162327;27;20374;-84
2022/07/07 09:46:07;;;;;;;;;;;19.20;99.90;;;;;;5141773;27;19923;-83
2022/07/07 09:48:34;;;;;;;;;;;19.20;99.90;;;;;;5162386;27;20138;-81
2022/07/07 09:51:15;;;;;;;;;;;19.00;99.90;;;;;;5144739;27;19927;-82
2022/07/07 09:53:51;;;;;;;;;;;19.00;99.90;;;;;;5166498;27;19934;-81
2022/07/07 09:56:17;;;;;;;;;;;19.10;99.90;;;;;;5145887;27;19922;-81
2022/07/07 09:58:42;;;;;;;;;;;18.50;99.90;;;;;;5146473;27;20274;-83
2022/07/07 10:01:08;;;;;;;;;;;18.10;99.90;;;;;;5164542;27;19930;-84
2022/07/07 10:03:33;;;;;;;;;;;18.10;99.90;;;;;;5160487;27;19930;-83
2022/07/07 10:06:00;;;;;;;;;;;18.00;99.90;;;;;;5161462;27;19934;-82
2022/07/07 10:08:28;;;;;;;;;;;18.00;99.90;;;;;;5145722;27;19977;-81
2022/07/07 10:10:54;;;;;;;;;;;18.50;99.90;;;;;;5166198;27;20362;-82
2022/07/07 10:13:20;;;;;;;;;;;18.30;99.90;;;;;;5145017;27;20390;-82
2022/07/07 10:15:46;;;;;;;;;;;18.20;99.90;;;;;;5165955;27;19997;-81
2022/07/07 10:18:12;;;;;;;;;;;18.20;99.90;;;;;;5144447;27;19930;-81
2022/07/07 10:20:37;;;;;;;;;;;18.30;99.90;;;;;;5139441;27;19927;-81
2022/07/07 10:23:03;;;;;;;;;;;18.30;99.90;;;;;;5165062;27;20013;-81
2022/07/07 10:25:29;;;;;;;;;;;18.20;99.90;;;;;;5145466;27;20298;-81
2022/07/07 10:27:54;;;;;;;;;;;18.10;99.90;;;;;;5166260;27;19925;-83
2022/07/07 10:30:30;;;;;;;;;;;18.20;99.90;;;;;;5163684;27;19923;-82
2022/07/07 10:32:55;;;;;;;;;;;18.40;99.90;;;;;;5146247;27;19930;-82
2022/07/07 10:35:23;;;;;;;;;;;18.30;99.90;;;;;;5140987;27;19923;-80
2022/07/07 10:37:53;;;;;;;;;;;18.50;99.90;;;;;;5148634;27;20345;-82
2022/07/07 10:40:29;;;;;;;;;;;18.70;99.90;;;;;;5162945;27;19930;-81
2022/07/07 10:42:57;;;;;;;;;;;18.90;99.90;;;;;;5171060;27;19923;-82
2022/07/07 10:45:23;;;;;;;;;;;18.80;99.70;;;;;;5163447;27;19927;-82
2022/07/07 10:47:48;;;;;;;;;;;19.30;99.90;;;;;;5144079;27;20021;-82
2022/07/07 10:50:27;;;;;;;;;;;19.30;99.70;;;;;;5141225;27;19975;-83
2022/07/07 10:52:53;;;;;;;;;;;19.50;98.20;;;;;;5137410;27;19969;-84
2022/07/07 10:55:19;;;;;;;;;;;19.70;98.80;;;;;;5141919;27;19930;-85
2022/07/07 10:57:45;;;;;;;;;;;20.20;97.90;;;;;;5143646;27;19919;-83
2022/07/07 11:00:15;;;;;;;;;;;20.80;97.90;;;;;;5144083;27;19931;-88
2022/07/07 11:02:49;;;;;;;;;;;20.60;97.20;;;;;;5138005;27;20352;-80
2022/07/07 11:05:15;;;;;;;;;;;20.30;97.50;;;;;;5133426;27;19930;-83
2022/07/07 11:08:06;;;;;;;;;;;20.00;98.80;;;;;;5136289;27;19920;-85
2022/07/07 11:10:41;;;;;;;;;;;20.00;99.00;;;;;;5130645;27;21448;-84
2022/07/07 11:13:14;;;;;;;;;;;20.00;99.70;;;;;;5145185;27;20405;-85
2022/07/07 11:15:39;;;;;;;;;;;20.10;99.20;;;;;;5136471;27;19927;-79
2022/07/07 11:18:12;;;;;;;;;;;20.20;98.50;;;;;;5139583;27;20002;-85
2022/07/07 11:21:14;;;;;;;;;;;20.20;98.70;;;;;;5135771;27;20014;-86
2022/07/07 11:23:52;;;;;;;;;;;20.30;98.40;;;;;;5077946;28;19940;-81
2022/07/07 11:26:19;;;;;;;;;;;21.00;97.40;;;;;;5132434;27;19923;-79
2022/07/07 11:28:44;;;;;;;;;;;21.20;96.60;;;;;;5140092;27;19923;-82
2022/07/07 11:31:12;;;;;;;;;;;21.10;96.90;;;;;;5138340;27;19971;-75
2022/07/07 11:33:39;;;;;;;;;;;21.10;96.80;;;;;;5132305;27;19923;-75
2022/07/07 11:36:08;;;;;;;;;;;21.10;96.20;;;;;;5130481;27;19924;-78
2022/07/07 11:38:34;;;;;;;;;;;21.10;96.30;;;;;;5134271;27;19954;-81
2022/07/07 11:40:59;;;;;;;;;;;21.50;96.10;;;;;;5135700;27;20382;-85
2022/07/07 11:43:25;;;;;;;;;;;21.60;96.20;;;;;;5130712;27;19970;-87
2022/07/07 11:45:50;;;;;;;;;;;22.00;94.80;;;;;;5135876;27;19932;-89
2022/07/07 11:48:16;;;;;;;;;;;22.10;94.80;;;;;;5147682;27;19934;-82
2022/07/07 11:50:41;;;;;;;;;;;21.70;95.10;;;;;;5156507;27;19927;-81
2022/07/07 11:53:07;;;;;;;;;;;21.90;95.40;;;;;;5157781;27;19922;-78
2022/07/07 11:55:33;;;;;;;;;;;21.60;95.60;;;;;;5157448;27;20297;-80
2022/07/07 11:57:58;;;;;;;;;;;21.50;96.30;;;;;;5155225;27;20282;-84
2022/07/07 12:00:28;;;;;;;;;;;21.40;96.10;;;;;;5138017;27;20287;-81
2022/07/07 12:02:56;;;;;;;;;;;21.20;95.30;;;;;;5134438;27;19927;-86
2022/07/07 12:05:22;;;;;;;;;;;20.90;95.70;;;;;;5157482;27;19930;-78
2022/07/07 12:07:54;;;;;;;;;;;20.90;95.70;;;;;;5147005;27;19923;-82
2022/07/07 12:10:21;;;;;;;;;;;20.50;96.40;;;;;;5144462;27;19931;-78
2022/07/07 12:12:57;;;;;;;;;;;20.40;96.80;;;;;;5144616;27;20367;-79
2022/07/07 12:15:24;;;;;;;;;;;20.40;96.80;;;;;;5163920;27;19943;-78
2022/07/07 12:17:49;;;;;;;;;;;20.20;97.00;;;;;;5158166;27;19970;-84
2022/07/07 12:20:16;;;;;;;;;;;20.00;97.60;;;;;;5162505;27;19969;-81
2022/07/07 12:22:45;;;;;;;;;;;19.90;97.30;;;;;;5157598;27;19923;-79
2022/07/07 12:25:11;;;;;;;;;;;19.70;97.80;;;;;;5135925;27;19930;-77
2022/07/07 12:27:52;;;;;;;;;;;19.50;98.10;;;;;;5141058;27;19923;-77
2022/07/07 12:30:17;;;;;;;;;;;19.20;98.70;;;;;;5145980;27;19981;-76
2022/07/07 12:32:46;;;;;;;;;;;19.30;98.80;;;;;;5147313;27;19958;-77
2022/07/07 12:35:31;;;;;;;;;;;19.40;99.30;;;;;;5144908;27;19962;-75
2022/07/07 12:37:58;;;;;;;;;;;19.60;99.10;;;;;;5128496;27;19953;-76
2022/07/07 12:40:25;;;;;;;;;;;20.10;97.50;;;;;;5131741;27;19931;-77
2022/07/07 12:42:50;;;;;;;;;;;19.80;97.90;;;;;;5150712;27;19919;-77
2022/07/07 12:45:17;;;;;;;;;;;20.00;97.80;;;;;;5159702;27;19931;-76
2022/07/07 12:47:44;;;;;;;;;;;20.30;97.30;;;;;;5130809;27;19951;-76
2022/07/07 12:50:09;;;;;;;;;;;20.50;97.50;;;;;;5136614;27;20006;-78
2022/07/07 12:52:35;;;;;;;;;;;20.50;96.90;;;;;;5136486;27;20446;-78
2022/07/07 12:55:10;;;;;;;;;;;20.60;96.30;;;;;;5143917;27;19923;-76
2022/07/07 12:57:36;;;;;;;;;;;20.60;96.70;;;;;;5141792;27;19923;-74
2022/07/07 13:00:01;;;;;;;;;;;20.70;96.90;;;;;;5142024;27;19923;-78
2022/07/07 13:02:27;;;;;;;;;;;20.60;96.80;;;;;;5142515;27;20080;-87
2022/07/07 13:04:53;;;;;;;;;;;20.50;96.90;;;;;;5141939;27;19928;-77
2022/07/07 13:07:19;;;;;;;;;;;20.60;97.40;;;;;;5135372;27;19931;-76
2022/07/07 13:09:44;;;;;;;;;;;20.40;97.30;;;;;;5146225;27;19923;-77
2022/07/07 13:12:13;;;;;;;;;;;20.40;96.80;;;;;;5139922;27;20329;-80
2022/07/07 13:14:39;;;;;;;;;;;20.20;97.40;;;;;;5144842;27;20298;-78
2022/07/07 13:17:05;;;;;;;;;;;20.20;97.80;;;;;;5142576;27;19923;-83
2022/07/07 13:19:30;;;;;;;;;;;20.20;98.20;;;;;;5146452;27;20366;-80
2022/07/07 13:21:56;;;;;;;;;;;20.10;97.80;;;;;;5142426;27;19969;-79
2022/07/07 13:24:21;;;;;;;;;;;20.10;98.40;;;;;;5146208;27;19923;-80
2022/07/07 13:26:47;;;;;;;;;;;20.30;98.10;;;;;;5144372;27;19927;-84
2022/07/07 13:29:17;;;;;;;;;;;20.50;98.30;;;;;;5142921;27;19931;-77
2022/07/07 13:31:43;;;;;;;;;;;20.50;98.50;;;;;;5146287;27;20076;-77
2022/07/07 13:34:08;;;;;;;;;;;20.60;97.80;;;;;;5142097;27;20062;-84
2022/07/07 13:36:33;;;;;;;;;;;20.50;97.20;;;;;;5146476;27;19924;-90
2022/07/07 13:38:59;;;;;;;;;;;20.60;97.80;;;;;;5146004;27;19927;-85
2022/07/07 13:41:25;;;;;;;;;;;20.60;97.70;;;;;;5144208;27;20019;-86
2022/07/07 13:43:50;;;;;;;;;;;20.70;97.80;;;;;;5145767;27;20302;-81
2022/07/07 13:46:16;;;;;;;;;;;20.90;97.70;;;;;;5133435;27;19984;-82
2022/07/07 13:48:41;;;;;;;;;;;20.70;97.50;;;;;;5140709;27;19924;-81
2022/07/07 13:51:07;;;;;;;;;;;20.60;97.70;;;;;;5145152;27;19923;-89
2022/07/07 13:53:32;;;;;;;;;;;20.80;97.10;;;;;;5143863;27;20392;-83
2022/07/07 13:55:58;;;;;;;;;;;20.80;97.20;;;;;;5138626;27;19923;-89
2022/07/07 13:58:23;;;;;;;;;;;20.60;96.90;;;;;;5144421;27;20055;-82
2022/07/07 14:00:49;;;;;;;;;;;20.60;97.00;;;;;;5141489;27;19923;-78
2022/07/07 14:03:15;;;;;;;;;;;20.20;97.90;;;;;;5141631;27;20389;-89
2022/07/07 14:05:40;;;;;;;;;;;20.20;98.70;;;;;;5138832;27;19931;-75
2022/07/07 14:08:06;;;;;;;;;;;19.90;98.70;;;;;;5146200;27;19930;-90
2022/07/07 14:10:31;;;;;;;;;;;19.60;99.70;;;;;;5144794;27;19923;-79
2022/07/07 14:12:57;;;;;;;;;;;19.50;99.80;;;;;;5144189;27;19968;-86
2022/07/07 14:15:23;;;;;;;;;;;19.30;99.90;;;;;;5144486;27;19923;-90
2022/07/07 14:17:48;;;;;;;;;;;19.30;99.40;;;;;;5142049;27;20010;-87